Global Round — 3FBO4 — position and weather

sailwx.info

Track history (hours):
 
Tides and Currents Weather Stations Pressure Air Temp Water Temp Dewpoint Dewpoint Depression Visibility Wind Speed Wind Dir Waves Ship Positions

Global Round

Last reported at 2018-Jan-05 21:01 UTC. Time now 2018-Jan-19 15:58 UTC.
Position N 25°21' E 122°53'.
Warning: this ship's position is 13 days out of date.

Length 178 m; draft 6.3 m.

Type: Ship. MMSI: 351225000.

Date/timePositionNaut miles runAvg speedWind from/ knotsBaromVisibWave heightAir tempDewpointWater temp
2018-Jan-05 21:01N 25°21' E 122°53'110.9
2018-Jan-05 20:59N 25°20' E 122°53'510.9
2018-Jan-05 20:30N 25°15' E 122°52'510.3
2018-Jan-05 20:00N 25°10' E 122°51'510.5
2018-Jan-05 19:30N 25°05' E 122°50'5 9.7
2018-Jan-05 19:00N 24°60' E 122°50'5 9.7
2018-Jan-05 18:30N 24°55' E 122°49'5 9.2
2018-Jan-05 18:00N 24°51' E 122°48'5 9.3
2018-Jan-05 17:30N 24°46' E 122°47'5 9.5
2018-Jan-05 17:00N 24°41' E 122°47'4 8.9
2018-Jan-05 16:30N 24°37' E 122°46'4 8.3
2018-Jan-05 16:00N 24°33' E 122°45'4 8.2
2018-Jan-05 15:30N 24°29' E 122°44'4 7.7
2018-Jan-05 15:00N 24°25' E 122°44'4 7.4
2018-Jan-05 14:30N 24°21' E 122°43'4 7.4
2018-Jan-05 14:00N 24°18' E 122°42'4 7.4
2018-Jan-05 13:30N 24°14' E 122°42'4 8.7
2018-Jan-05 13:00N 24°10' E 122°41'4 8.4
2018-Jan-05 12:30N 24°06' E 122°41'5 9.0
2018-Jan-05 12:00N 24°01' E 122°40'5 9.0
2018-Jan-05 11:30N 23°57' E 122°39'5 9.1
2018-Jan-05 11:00N 23°52' E 122°38'5 9.5
2018-Jan-05 10:30N 23°47' E 122°38'5 9.4
2018-Jan-05 10:00N 23°43' E 122°37'5 9.6
2018-Jan-05 09:30N 23°38' E 122°36'5 9.5
2018-Jan-05 08:57N 23°33' E 122°35'  
2017-Dec-27 16:09N 01°17' E 104°08'212.2
2017-Dec-27 16:00N 01°18' E 104°07'611.4
2017-Dec-27 15:30N 01°22' E 104°02'5 8.9
2017-Dec-27 14:59N 01°24' E 103°58'4 0.4
2017-Dec-27 03:34N 01°26' E 103°55'0 0.0
2017-Dec-27 03:28N 01°26' E 103°55'0 0.0
2017-Dec-27 00:34N 01°26' E 103°55'0 0.0
2017-Dec-26 23:04N 01°26' E 103°55'  
Track history (hours):
 
Tides and Currents Weather Stations Pressure Air Temp Water Temp Dewpoint Dewpoint Depression Visibility Wind Speed Wind Dir Waves Ship Positions

Global Round

Last reported at 2018-Jan-05 21:01 UTC. Time now 2018-Jan-19 15:58 UTC.
Position N 25°21' E 122°53'.
Warning: this ship's position is 13 days out of date.

Length 178 m; draft 6.3 m.

Type: Ship. MMSI: 351225000.

Date/timePositionNaut miles runAvg speedWind from/ knotsBaromVisibWave heightAir tempDewpointWater temp
2018-Jan-05 21:01N 25°21' E 122°53'110.9
2018-Jan-05 20:59N 25°20' E 122°53'510.9
2018-Jan-05 20:30N 25°15' E 122°52'510.3
2018-Jan-05 20:00N 25°10' E 122°51'510.5
2018-Jan-05 19:30N 25°05' E 122°50'5 9.7
2018-Jan-05 19:00N 24°60' E 122°50'5 9.7
2018-Jan-05 18:30N 24°55' E 122°49'5 9.2
2018-Jan-05 18:00N 24°51' E 122°48'5 9.3
2018-Jan-05 17:30N 24°46' E 122°47'5 9.5
2018-Jan-05 17:00N 24°41' E 122°47'4 8.9
2018-Jan-05 16:30N 24°37' E 122°46'4 8.3
2018-Jan-05 16:00N 24°33' E 122°45'4 8.2
2018-Jan-05 15:30N 24°29' E 122°44'4 7.7
2018-Jan-05 15:00N 24°25' E 122°44'4 7.4
2018-Jan-05 14:30N 24°21' E 122°43'4 7.4
2018-Jan-05 14:00N 24°18' E 122°42'4 7.4
2018-Jan-05 13:30N 24°14' E 122°42'4 8.7
2018-Jan-05 13:00N 24°10' E 122°41'4 8.4
2018-Jan-05 12:30N 24°06' E 122°41'5 9.0
2018-Jan-05 12:00N 24°01' E 122°40'5 9.0
2018-Jan-05 11:30N 23°57' E 122°39'5 9.1
2018-Jan-05 11:00N 23°52' E 122°38'5 9.5
2018-Jan-05 10:30N 23°47' E 122°38'5 9.4
2018-Jan-05 10:00N 23°43' E 122°37'5 9.6
2018-Jan-05 09:30N 23°38' E 122°36'5 9.5
2018-Jan-05 08:57N 23°33' E 122°35'  
2017-Dec-27 16:09N 01°17' E 104°08'212.2
2017-Dec-27 16:00N 01°18' E 104°07'611.4
2017-Dec-27 15:30N 01°22' E 104°02'5 8.9
2017-Dec-27 14:59N 01°24' E 103°58'4 0.4
2017-Dec-27 03:34N 01°26' E 103°55'0 0.0
2017-Dec-27 03:28N 01°26' E 103°55'0 0.0
2017-Dec-27 00:34N 01°26' E 103°55'0 0.0
2017-Dec-26 23:04N 01°26' E 103°55'  

Dump ship's entire track history